Terminal Aerodrome Forecast
Issued by NWS

Home | Current Version | Previous Version | Text Only | Print | Product List | Glossary On
Versions: 1 2 3 4 5 6 7 8 9 10 11 12 13 14 15 16 17 18 19 20 21
000
FTUS42 KTBW 242300 RRA
TAFLAL
TAF
KLAL 242341Z 2500/2524 22005KT P6SM SCT250
     FM250400 17003KT 3SM BR SCT007 BKN015
     FM251500 19007KT 4SM BR VCTS OVC015CB
     FM251800 19007KT 4SM SHRA VCTS SCT020CB BKN050
      AMD NOT SKED 2503/2512=

USA.gov is the U.S. government's official web portal to all federal, state and local government web resources and services.